createdAt,value
2018-07-24T00:01:41.094Z,8.90
2018-07-24T00:04:09.216Z,8.40
2018-07-24T00:06:37.304Z,8.77
2018-07-24T00:09:07.103Z,9.20
2018-07-24T00:11:35.306Z,9.77
2018-07-24T00:14:03.484Z,8.27
2018-07-24T00:16:31.649Z,8.80
2018-07-24T00:18:59.817Z,10.17
2018-07-24T00:21:27.983Z,9.47
2018-07-24T00:23:56.085Z,9.70
2018-07-24T00:26:24.216Z,11.17
2018-07-24T00:28:52.612Z,9.90
2018-07-24T00:31:20.713Z,10.27
2018-07-24T00:33:48.880Z,10.93
2018-07-24T00:36:16.997Z,10.20
2018-07-24T00:38:45.117Z,11.40
2018-07-24T00:41:13.257Z,9.73
2018-07-24T00:43:42.293Z,10.60
2018-07-24T00:46:10.427Z,9.60
2018-07-24T00:48:38.549Z,11.30
2018-07-24T00:51:07.097Z,10.10
2018-07-24T00:53:35.202Z,10.67
2018-07-24T00:56:03.315Z,10.63
2018-07-24T00:58:31.413Z,12.20
2018-07-24T01:00:59.533Z,11.45
2018-07-24T01:03:27.626Z,9.90
2018-07-24T01:05:55.764Z,10.17
2018-07-24T01:08:23.899Z,9.30
2018-07-24T01:10:52.005Z,9.13
2018-07-24T01:13:20.133Z,9.83
2018-07-24T01:15:48.250Z,10.63
2018-07-24T01:18:17.781Z,10.33
2018-07-24T01:20:46.189Z,9.40
2018-07-24T01:23:14.358Z,10.00
2018-07-24T01:25:42.485Z,9.83
2018-07-24T01:28:10.602Z,9.47
2018-07-24T01:30:38.733Z,10.23
2018-07-24T01:33:06.700Z,8.90
2018-07-24T01:35:34.885Z,9.77
2018-07-24T01:38:02.984Z,10.30
2018-07-24T01:40:31.078Z,10.63
2018-07-24T01:42:59.243Z,11.27
2018-07-24T01:45:27.344Z,11.07
2018-07-24T01:47:55.741Z,12.30
2018-07-24T01:50:23.865Z,10.77
2018-07-24T01:52:52.028Z,11.50
2018-07-24T01:55:20.110Z,10.95
2018-07-24T01:57:48.277Z,10.60
2018-07-24T02:00:17.482Z,10.80
2018-07-24T02:02:45.637Z,10.30
2018-07-24T02:05:14.140Z,10.70
2018-07-24T02:07:42.829Z,10.70
2018-07-24T02:10:10.937Z,11.40
2018-07-24T02:12:39.086Z,11.33
2018-07-24T02:15:07.698Z,11.20
2018-07-24T02:17:36.029Z,12.20
2018-07-24T02:20:04.501Z,12.60
2018-07-24T02:22:32.641Z,11.30
2018-07-24T02:25:00.858Z,14.10
2018-07-24T02:27:29.030Z,11.40
2018-07-24T02:29:57.309Z,11.83
2018-07-24T02:32:25.491Z,13.50
2018-07-24T02:34:53.790Z,11.17
2018-07-24T02:37:21.757Z,13.70
2018-07-24T02:39:49.830Z,11.93
2018-07-24T02:42:17.957Z,12.07
2018-07-24T02:44:46.106Z,12.03
2018-07-24T02:47:15.306Z,12.20
2018-07-24T02:49:43.437Z,11.83
2018-07-24T02:52:11.553Z,12.57
2018-07-24T02:54:39.657Z,12.67
2018-07-24T02:57:07.778Z,12.80
2018-07-24T02:59:35.909Z,12.53
2018-07-24T03:02:04.049Z,12.05
2018-07-24T03:04:32.277Z,12.37
2018-07-24T03:07:00.452Z,13.10
2018-07-24T03:09:28.637Z,13.10
2018-07-24T03:11:56.757Z,12.90
2018-07-24T03:14:24.933Z,13.70
2018-07-24T03:16:53.082Z,13.13
2018-07-24T03:19:21.486Z,13.90
2018-07-24T03:21:49.669Z,12.60
2018-07-24T03:24:17.795Z,12.10
2018-07-24T03:26:45.977Z,12.00
2018-07-24T03:29:14.090Z,12.80
2018-07-24T03:31:42.185Z,12.50
2018-07-24T03:34:10.298Z,12.90
2018-07-24T03:36:38.473Z,12.37
2018-07-24T03:39:09.369Z,12.57
2018-07-24T03:41:37.497Z,12.47
2018-07-24T03:44:06.799Z,12.23
2018-07-24T03:46:34.914Z,13.80
2018-07-24T03:49:03.015Z,12.43
2018-07-24T03:51:31.353Z,12.60
2018-07-24T03:53:59.253Z,11.97
2018-07-24T03:56:27.365Z,13.83
2018-07-24T03:58:55.525Z,12.70
2018-07-24T04:01:23.761Z,13.43
2018-07-24T04:03:51.862Z,13.83
2018-07-24T04:06:20.038Z,12.97
2018-07-24T04:08:48.233Z,13.10
2018-07-24T04:11:16.366Z,12.90
2018-07-24T04:13:44.474Z,13.80
2018-07-24T04:16:12.686Z,13.10
2018-07-24T04:18:46.149Z,15.17
2018-07-24T04:21:14.747Z,13.53
2018-07-24T04:23:42.994Z,13.30
2018-07-24T04:26:11.142Z,13.37
2018-07-24T04:28:40.365Z,14.50
2018-07-24T04:31:08.725Z,13.00
2018-07-24T04:33:36.764Z,14.60
2018-07-24T04:36:04.862Z,13.17
2018-07-24T04:38:33.011Z,13.37
2018-07-24T04:41:01.166Z,13.73
2018-07-24T04:43:29.435Z,14.90
2018-07-24T04:45:57.665Z,13.60
2018-07-24T04:48:25.980Z,15.03
2018-07-24T04:50:54.161Z,13.67
2018-07-24T04:53:22.413Z,15.53
2018-07-24T04:55:50.554Z,15.47
2018-07-24T04:58:18.654Z,15.70
2018-07-24T05:00:46.749Z,15.43
2018-07-24T05:03:14.865Z,16.40
2018-07-24T05:05:42.955Z,14.93
2018-07-24T05:08:11.066Z,16.60
2018-07-24T05:10:39.189Z,17.10
2018-07-24T05:13:07.340Z,16.83
2018-07-24T05:15:35.441Z,16.17
2018-07-24T05:18:03.554Z,17.77
2018-07-24T05:20:31.664Z,18.93
2018-07-24T05:22:59.757Z,18.43
2018-07-24T05:25:28.135Z,17.10
2018-07-24T05:27:56.230Z,17.70
2018-07-24T05:30:24.333Z,18.30
2018-07-24T05:32:52.636Z,18.00
2018-07-24T05:35:20.725Z,16.97
2018-07-24T05:37:48.838Z,16.43
2018-07-24T05:40:16.769Z,17.77
2018-07-24T05:42:44.909Z,16.00
2018-07-24T05:45:13.108Z,15.80
2018-07-24T05:47:41.261Z,13.77
2018-07-24T05:50:09.385Z,15.70
2018-07-24T05:52:37.495Z,15.17
2018-07-24T05:55:05.711Z,14.03
2018-07-24T05:57:33.778Z,14.77
2018-07-24T06:00:02.224Z,14.47
2018-07-24T06:02:30.360Z,14.07
2018-07-24T06:04:58.487Z,13.50
2018-07-24T06:07:26.629Z,13.63
2018-07-24T06:09:54.724Z,13.67
2018-07-24T06:12:22.856Z,14.17
2018-07-24T06:14:50.946Z,12.43
2018-07-24T06:17:19.077Z,11.70
2018-07-24T06:19:47.221Z,11.47
2018-07-24T06:22:15.350Z,11.00
2018-07-24T06:24:43.519Z,13.33
2018-07-24T06:27:11.647Z,13.87
2018-07-24T06:29:39.765Z,11.67
2018-07-24T06:32:07.866Z,12.17
2018-07-24T06:34:36.049Z,13.67
2018-07-24T06:37:04.192Z,13.23
2018-07-24T06:39:32.500Z,13.40
2018-07-24T06:42:00.594Z,13.33
2018-07-24T06:44:28.722Z,13.97
2018-07-24T06:46:56.829Z,13.47
2018-07-24T06:49:24.953Z,13.30
2018-07-24T06:51:53.060Z,13.67
2018-07-24T06:54:21.185Z,14.80
2018-07-24T06:56:49.506Z,13.73
2018-07-24T06:59:17.645Z,12.23
2018-07-24T07:01:45.553Z,12.70
2018-07-24T07:04:13.640Z,13.80
2018-07-24T07:06:41.732Z,12.17
2018-07-24T07:09:10.091Z,12.40
2018-07-24T07:11:38.174Z,13.50
2018-07-24T07:14:06.624Z,12.93
2018-07-24T07:16:34.996Z,13.27
2018-07-24T07:19:03.122Z,13.30
2018-07-24T07:21:31.226Z,14.40
2018-07-24T07:23:59.533Z,15.27
2018-07-24T07:26:27.629Z,13.50
2018-07-24T07:28:55.681Z,14.50
2018-07-24T07:31:23.832Z,14.77
2018-07-24T07:33:53.788Z,13.10
2018-07-24T07:36:21.973Z,14.37
2018-07-24T07:38:50.066Z,13.53
2018-07-24T07:41:18.181Z,15.03
2018-07-24T07:43:46.283Z,13.07
2018-07-24T07:46:14.363Z,14.50
2018-07-24T07:48:42.469Z,14.87
2018-07-24T07:51:10.736Z,12.30
2018-07-24T07:53:38.831Z,13.07
2018-07-24T07:56:06.925Z,12.40
2018-07-24T07:58:35.030Z,13.13
2018-07-24T08:01:03.132Z,13.73
2018-07-24T08:03:31.234Z,13.60
2018-07-24T08:05:59.321Z,12.57
2018-07-24T08:08:27.557Z,12.23
2018-07-24T08:10:55.669Z,13.10
2018-07-24T08:13:23.767Z,12.37
2018-07-24T08:15:51.866Z,13.07
2018-07-24T08:18:19.945Z,13.10
2018-07-24T08:20:48.043Z,14.60
2018-07-24T08:23:16.165Z,11.60
2018-07-24T08:25:44.349Z,14.17
2018-07-24T08:28:12.508Z,14.83
2018-07-24T08:30:40.812Z,13.20
2018-07-24T08:33:08.925Z,12.07
2018-07-24T08:35:37.171Z,15.47
2018-07-24T08:38:05.429Z,12.87
2018-07-24T08:40:33.685Z,13.83
2018-07-24T08:43:02.070Z,13.10
2018-07-24T08:45:30.363Z,13.60
2018-07-24T08:47:58.474Z,13.10
2018-07-24T08:50:27.150Z,15.90
2018-07-24T08:52:55.728Z,14.47
2018-07-24T08:55:24.097Z,13.50
2018-07-24T08:57:52.453Z,15.50
2018-07-24T09:00:20.759Z,13.73
2018-07-24T09:02:48.849Z,13.70
2018-07-24T09:05:16.953Z,13.93
2018-07-24T09:07:45.059Z,14.83
2018-07-24T09:10:13.195Z,13.23
2018-07-24T09:12:41.270Z,13.40
2018-07-24T09:15:09.365Z,11.57
2018-07-24T09:17:37.497Z,13.67
2018-07-24T09:20:05.603Z,14.33
2018-07-24T09:22:33.722Z,13.70
2018-07-24T09:25:01.866Z,11.80
2018-07-24T09:27:29.961Z,12.53
2018-07-24T09:29:58.102Z,12.40
2018-07-24T09:32:26.202Z,11.33
2018-07-24T09:34:54.294Z,12.83
2018-07-24T09:37:22.398Z,13.37
2018-07-24T09:39:50.517Z,14.67
2018-07-24T09:42:18.593Z,14.30
2018-07-24T09:44:46.897Z,11.80
2018-07-24T09:47:14.994Z,13.70
2018-07-24T09:49:43.099Z,12.20
2018-07-24T09:52:10.997Z,13.77
2018-07-24T09:54:39.221Z,12.27
2018-07-24T09:57:07.310Z,13.90
2018-07-24T09:59:35.180Z,13.30
2018-07-24T10:02:03.281Z,11.30
2018-07-24T10:04:31.386Z,11.07
2018-07-24T10:06:59.481Z,11.70
2018-07-24T10:09:27.575Z,13.10
2018-07-24T10:11:55.674Z,10.50
2018-07-24T10:14:23.789Z,12.27
2018-07-24T10:16:51.930Z,10.70
2018-07-24T10:19:19.749Z,12.00
2018-07-24T10:21:47.869Z,12.57
2018-07-24T10:24:15.972Z,10.33
2018-07-24T10:26:44.057Z,11.70
2018-07-24T10:29:12.171Z,13.70
2018-07-24T10:31:40.277Z,14.10
2018-07-24T10:34:08.368Z,12.60
2018-07-24T10:36:36.251Z,15.20
2018-07-24T10:39:08.008Z,17.03
2018-07-24T10:41:36.093Z,14.70
2018-07-24T10:44:04.201Z,12.93
2018-07-24T10:46:32.292Z,14.03
2018-07-24T10:49:00.390Z,12.63
2018-07-24T10:51:28.494Z,12.00
2018-07-24T10:53:56.595Z,12.53
2018-07-24T10:56:24.699Z,11.93
2018-07-24T10:58:52.788Z,12.90
2018-07-24T11:01:21.177Z,11.90
2018-07-24T11:03:49.596Z,13.93
2018-07-24T11:06:17.671Z,13.57
2018-07-24T11:08:45.773Z,13.53
2018-07-24T11:11:13.886Z,14.00
2018-07-24T11:13:41.968Z,12.20
2018-07-24T11:16:10.058Z,14.43
2018-07-24T11:18:38.182Z,14.23
2018-07-24T11:21:06.504Z,12.27
2018-07-24T11:23:34.587Z,15.67
2018-07-24T11:26:02.678Z,12.70
2018-07-24T11:28:30.769Z,13.03
2018-07-24T11:30:58.895Z,13.13
2018-07-24T11:33:27.158Z,11.50
2018-07-24T11:35:55.373Z,10.70
2018-07-24T11:38:23.378Z,13.53
2018-07-24T11:40:51.474Z,12.00
2018-07-24T11:43:19.612Z,12.43
2018-07-24T11:45:47.883Z,11.10
2018-07-24T11:48:15.966Z,11.80
2018-07-24T11:50:44.079Z,12.70
2018-07-24T11:53:12.161Z,11.50
2018-07-24T11:55:40.263Z,12.90
2018-07-24T11:58:08.374Z,11.90
2018-07-24T12:00:36.481Z,17.10
2018-07-24T12:03:04.698Z,11.17
2018-07-24T12:05:32.786Z,13.10
2018-07-24T12:08:00.873Z,10.87
2018-07-24T12:10:28.963Z,10.73
2018-07-24T12:12:56.892Z,11.70
2018-07-24T12:15:24.985Z,12.47
2018-07-24T12:17:53.077Z,11.20
2018-07-24T12:20:21.194Z,12.13
2018-07-24T12:22:49.281Z,11.70
2018-07-24T12:25:17.373Z,13.17
2018-07-24T12:27:45.316Z,13.10
2018-07-24T12:30:13.419Z,12.03
2018-07-24T12:32:41.510Z,12.07
2018-07-24T12:35:09.599Z,11.60
2018-07-24T12:37:37.700Z,13.17
2018-07-24T12:40:05.917Z,10.10
2018-07-24T12:42:34.964Z,12.53
2018-07-24T12:45:03.097Z,11.57
2018-07-24T12:47:31.195Z,11.00
2018-07-24T12:49:59.369Z,11.77
2018-07-24T12:52:27.537Z,11.73
2018-07-24T12:54:55.340Z,10.83
2018-07-24T12:57:23.450Z,11.23
2018-07-24T12:59:51.546Z,10.73
2018-07-24T13:02:19.654Z,11.00
2018-07-24T13:04:47.729Z,9.60
2018-07-24T13:07:15.600Z,10.60
2018-07-24T13:09:43.738Z,10.70
2018-07-24T13:12:11.835Z,11.20
2018-07-24T13:14:39.937Z,10.37
2018-07-24T13:17:08.041Z,10.23
2018-07-24T13:19:36.187Z,11.47
2018-07-24T13:22:04.278Z,10.40
2018-07-24T13:24:32.399Z,10.47
2018-07-24T13:27:00.525Z,11.40
2018-07-24T13:29:28.622Z,11.20
2018-07-24T13:31:56.792Z,11.27
2018-07-24T13:34:24.985Z,11.43
2018-07-24T13:36:53.089Z,11.60
2018-07-24T13:39:21.189Z,11.50
2018-07-24T13:41:49.317Z,11.20
2018-07-24T13:44:17.421Z,12.77
2018-07-24T13:46:45.525Z,11.80
2018-07-24T13:49:13.633Z,11.80
2018-07-24T13:51:41.761Z,11.20
2018-07-24T13:54:09.866Z,12.17
2018-07-24T13:56:37.983Z,11.70
2018-07-24T13:59:06.074Z,13.07
2018-07-24T14:01:34.178Z,12.10
2018-07-24T14:04:02.270Z,12.40
2018-07-24T14:06:30.384Z,12.17
2018-07-24T14:08:58.471Z,11.80
2018-07-24T14:11:26.574Z,13.40
2018-07-24T14:13:54.678Z,12.57
2018-07-24T14:16:22.979Z,11.40
2018-07-24T14:18:51.169Z,13.13
2018-07-24T14:21:19.274Z,10.90
2018-07-24T14:23:47.395Z,11.10
2018-07-24T14:26:15.535Z,12.20
2018-07-24T14:28:43.629Z,11.10
2018-07-24T14:31:11.812Z,10.80
2018-07-24T14:33:39.843Z,10.93
2018-07-24T14:36:07.942Z,11.90
2018-07-24T14:38:36.062Z,10.53
2018-07-24T14:41:04.173Z,11.00
2018-07-24T14:43:32.278Z,11.77
2018-07-24T14:46:00.373Z,12.67
2018-07-24T14:48:28.739Z,13.00
2018-07-24T14:50:56.838Z,11.37
2018-07-24T14:53:24.939Z,11.47
2018-07-24T14:55:53.049Z,12.07
2018-07-24T14:58:21.186Z,12.47
2018-07-24T15:00:49.265Z,12.93
2018-07-24T15:03:17.371Z,12.17
2018-07-24T15:05:45.482Z,11.43
2018-07-24T15:08:13.601Z,11.33
2018-07-24T15:10:41.697Z,13.20
2018-07-24T15:13:09.817Z,11.73
2018-07-24T15:15:37.907Z,11.27
2018-07-24T15:18:06.173Z,11.50
2018-07-24T15:20:34.273Z,12.30
2018-07-24T15:23:02.718Z,12.00
2018-07-24T15:25:30.793Z,11.97
2018-07-24T15:27:58.921Z,11.33
2018-07-24T15:30:27.005Z,10.83
2018-07-24T15:32:55.126Z,11.00
2018-07-24T15:35:23.222Z,10.90
2018-07-24T15:37:51.325Z,11.30
2018-07-24T15:40:19.437Z,11.80
2018-07-24T15:42:47.542Z,11.00
2018-07-24T15:45:15.632Z,12.00
2018-07-24T15:47:43.729Z,10.90
2018-07-24T15:50:11.813Z,11.13
2018-07-24T15:52:39.926Z,11.17
2018-07-24T15:55:08.237Z,11.63
2018-07-24T15:57:36.363Z,11.77
2018-07-24T16:00:05.021Z,10.90
2018-07-24T16:02:33.452Z,11.17
2018-07-24T16:05:01.550Z,10.90
2018-07-24T16:07:29.835Z,10.33
2018-07-24T16:09:57.958Z,10.70
2018-07-24T16:12:26.061Z,12.90
2018-07-24T16:14:54.141Z,11.50
2018-07-24T16:17:22.249Z,10.63
2018-07-24T16:19:50.329Z,10.50
2018-07-24T16:22:18.444Z,10.00
2018-07-24T16:24:46.529Z,10.00
2018-07-24T16:27:14.909Z,10.30
2018-07-24T16:29:43.002Z,10.57
2018-07-24T16:32:11.122Z,10.63
2018-07-24T16:34:39.193Z,10.33
2018-07-24T16:37:07.337Z,10.33
2018-07-24T16:39:35.362Z,9.93
2018-07-24T16:42:03.665Z,10.17
2018-07-24T16:44:31.754Z,10.63
2018-07-24T16:47:00.127Z,10.30
2018-07-24T16:49:28.212Z,9.83
2018-07-24T16:51:56.650Z,10.20
2018-07-24T16:54:24.745Z,10.07
2018-07-24T16:56:52.619Z,11.40
2018-07-24T16:59:20.869Z,11.80
2018-07-24T17:01:48.972Z,10.33
2018-07-24T17:04:17.080Z,10.50
2018-07-24T17:06:45.149Z,10.70
2018-07-24T17:09:13.251Z,10.73
2018-07-24T17:11:41.581Z,9.10
2018-07-24T17:14:09.670Z,9.53
2018-07-24T17:16:37.747Z,9.90
2018-07-24T17:19:05.886Z,7.77
2018-07-24T17:21:33.973Z,7.43
2018-07-24T17:24:02.245Z,8.27
2018-07-24T17:26:30.841Z,9.03
2018-07-24T17:28:58.884Z,8.87
2018-07-24T17:31:27.290Z,9.47
2018-07-24T17:33:55.460Z,10.60
2018-07-24T17:36:23.529Z,11.03
2018-07-24T17:38:51.605Z,10.27
2018-07-24T17:41:19.706Z,11.17
2018-07-24T17:43:47.797Z,10.77
2018-07-24T17:46:15.879Z,9.70
2018-07-24T17:48:44.001Z,11.33
2018-07-24T17:51:12.082Z,10.53
2018-07-24T17:53:40.260Z,10.10
2018-07-24T17:56:08.326Z,11.70
2018-07-24T17:58:36.431Z,11.90
2018-07-24T18:01:04.565Z,11.80
2018-07-24T18:03:32.613Z,11.57
2018-07-24T18:06:00.719Z,11.97
2018-07-24T18:08:28.803Z,12.33
2018-07-24T18:10:56.892Z,13.10
2018-07-24T18:13:25.029Z,11.73
2018-07-24T18:15:53.148Z,12.70
2018-07-24T18:18:21.236Z,12.30
2018-07-24T18:20:49.316Z,12.83
2018-07-24T18:23:17.425Z,12.40
2018-07-24T18:25:45.538Z,12.47
2018-07-24T18:28:13.673Z,13.67
2018-07-24T18:30:41.792Z,12.43
2018-07-24T18:33:10.083Z,13.20
2018-07-24T18:35:38.144Z,13.63
2018-07-24T18:38:06.579Z,13.00
2018-07-24T18:40:34.917Z,13.00
2018-07-24T18:43:03.013Z,12.70
2018-07-24T18:45:31.151Z,12.43
2018-07-24T18:47:59.363Z,12.60
2018-07-24T18:50:27.446Z,11.13
2018-07-24T18:52:55.353Z,12.57
2018-07-24T18:55:23.561Z,13.25
2018-07-24T18:57:51.829Z,13.00
2018-07-24T19:00:25.834Z,13.27
2018-07-24T19:02:54.306Z,15.17
2018-07-24T19:05:22.416Z,12.57
2018-07-24T19:07:52.356Z,13.30
2018-07-24T19:10:20.761Z,13.23
2018-07-24T19:12:48.971Z,12.40
2018-07-24T19:15:17.145Z,11.70
2018-07-24T19:17:45.744Z,12.60
2018-07-24T19:20:13.849Z,12.33
2018-07-24T19:22:42.909Z,13.23
2018-07-24T19:25:11.439Z,12.83
2018-07-24T19:27:39.577Z,12.83
2018-07-24T19:30:08.457Z,15.33
2018-07-24T19:32:36.695Z,12.27
2018-07-24T19:35:04.827Z,13.37
2018-07-24T19:37:32.946Z,12.10
2018-07-24T19:40:01.107Z,12.10
2018-07-24T19:42:29.230Z,12.63
2018-07-24T19:44:57.337Z,12.70
2018-07-24T19:47:25.658Z,13.37
2018-07-24T19:49:53.837Z,13.83
2018-07-24T19:52:21.877Z,13.23
2018-07-24T19:54:50.625Z,14.43
2018-07-24T19:57:18.775Z,13.60
2018-07-24T19:59:46.909Z,12.40
2018-07-24T20:02:15.053Z,12.37
2018-07-24T20:04:44.144Z,13.07
2018-07-24T20:07:12.934Z,13.30
2018-07-24T20:09:41.134Z,12.73
2018-07-24T20:12:09.593Z,11.03
2018-07-24T20:14:37.711Z,12.47
2018-07-24T20:17:06.329Z,12.23
2018-07-24T20:19:34.443Z,10.90
2018-07-24T20:22:02.679Z,12.50
2018-07-24T20:24:30.858Z,17.83
2018-07-24T20:26:58.966Z,12.90
2018-07-24T20:29:27.085Z,13.73
2018-07-24T20:31:55.217Z,14.80
2018-07-24T20:34:23.341Z,12.13
2018-07-24T20:36:51.687Z,12.57
2018-07-24T20:39:19.612Z,12.07
2018-07-24T20:41:47.752Z,13.77
2018-07-24T20:44:15.876Z,12.90
2018-07-24T20:46:43.994Z,13.47
2018-07-24T20:49:12.095Z,12.60
2018-07-24T20:51:40.187Z,13.90
2018-07-24T20:54:08.307Z,13.50
2018-07-24T20:56:36.402Z,14.50
2018-07-24T20:59:04.621Z,13.97
2018-07-24T21:01:32.599Z,14.23
2018-07-24T21:04:00.834Z,15.37
2018-07-24T21:06:29.152Z,15.27
2018-07-24T21:08:57.300Z,14.73
2018-07-24T21:11:25.602Z,16.50
2018-07-24T21:13:53.725Z,14.90
2018-07-24T21:16:21.856Z,15.30
2018-07-24T21:18:50.405Z,15.57
2018-07-24T21:21:18.549Z,16.20
2018-07-24T21:23:46.957Z,15.80
2018-07-24T21:26:15.093Z,16.03
2018-07-24T21:28:43.222Z,17.00
2018-07-24T21:31:11.321Z,14.70
2018-07-24T21:33:39.442Z,16.73
2018-07-24T21:36:07.755Z,16.27
2018-07-24T21:38:36.018Z,16.83
2018-07-24T21:41:04.213Z,15.90
2018-07-24T21:43:32.810Z,15.47
2018-07-24T21:46:00.934Z,17.70
2018-07-24T21:48:29.045Z,16.27
2018-07-24T21:50:57.194Z,17.93
2018-07-24T21:53:25.419Z,15.53
2018-07-24T21:55:53.962Z,15.33
2018-07-24T21:58:22.362Z,16.67
2018-07-24T22:00:55.804Z,16.87
2018-07-24T22:03:24.106Z,15.77
2018-07-24T22:05:52.229Z,16.37
2018-07-24T22:08:20.361Z,16.13
2018-07-24T22:10:48.489Z,15.13
2018-07-24T22:13:16.619Z,14.87
2018-07-24T22:15:44.753Z,13.57
2018-07-24T22:18:12.926Z,14.33
2018-07-24T22:20:41.113Z,13.97
2018-07-24T22:23:09.015Z,15.10
2018-07-24T22:25:37.161Z,14.67
2018-07-24T22:28:05.367Z,12.97
2018-07-24T22:30:33.553Z,14.23
2018-07-24T22:33:01.695Z,15.20
2018-07-24T22:35:30.167Z,16.33
2018-07-24T22:37:58.612Z,14.70
2018-07-24T22:40:26.817Z,13.23
2018-07-24T22:42:55.025Z,13.20
2018-07-24T22:45:23.169Z,14.17
2018-07-24T22:47:51.273Z,14.67
2018-07-24T22:50:19.434Z,15.87
2018-07-24T22:52:47.517Z,15.77
2018-07-24T22:55:15.664Z,15.70
2018-07-24T22:57:43.843Z,16.77
2018-07-24T23:00:12.199Z,15.57
2018-07-24T23:02:40.302Z,15.00
2018-07-24T23:05:08.515Z,14.90
2018-07-24T23:07:36.435Z,15.63
2018-07-24T23:10:05.142Z,15.50
2018-07-24T23:12:33.230Z,15.13
2018-07-24T23:15:01.380Z,14.90
2018-07-24T23:17:29.793Z,15.53
2018-07-24T23:19:58.344Z,16.07
2018-07-24T23:22:26.429Z,14.80
2018-07-24T23:24:54.576Z,15.47
2018-07-24T23:27:22.740Z,15.83
2018-07-24T23:29:50.864Z,14.90
2018-07-24T23:32:18.964Z,15.00
2018-07-24T23:34:47.100Z,16.50
2018-07-24T23:37:15.280Z,15.33
2018-07-24T23:39:43.397Z,14.87
2018-07-24T23:42:11.835Z,17.33
2018-07-24T23:44:39.989Z,14.97
2018-07-24T23:47:08.174Z,15.10
2018-07-24T23:49:36.351Z,15.40
2018-07-24T23:52:04.513Z,15.83
2018-07-24T23:54:32.636Z,16.27
2018-07-24T23:57:00.773Z,15.47
2018-07-24T23:59:28.893Z,16.60
